sensor_id;sensor_type;location;lat;lon;timestamp;pressure;altitude;pressure_sealevel;temperature;humidity
23899;BME280;20544;50.018;20.010;2023-03-23T00:00:09;98360.67;;;10.92;100.00
23899;BME280;20544;50.018;20.010;2023-03-23T00:03:29;98350.07;;;10.64;100.00
23899;BME280;20544;50.018;20.010;2023-03-23T00:06:46;98347.06;;;10.24;100.00
23899;BME280;20544;50.018;20.010;2023-03-23T00:10:04;98346.33;;;10.08;100.00
23899;BME280;20544;50.018;20.010;2023-03-23T00:13:22;98346.55;;;9.92;100.00
23899;BME280;20544;50.018;20.010;2023-03-23T00:16:39;98346.69;;;9.83;100.00
23899;BME280;20544;50.018;20.010;2023-03-23T00:19:56;98347.28;;;9.64;100.00
23899;BME280;20544;50.018;20.010;2023-03-23T00:23:14;98349.77;;;9.50;100.00
23899;BME280;20544;50.018;20.010;2023-03-23T00:26:32;98348.78;;;9.36;100.00
23899;BME280;20544;50.018;20.010;2023-03-23T00:29:52;98353.27;;;9.36;100.00
23899;BME280;20544;50.018;20.010;2023-03-23T00:33:08;98351.83;;;9.18;100.00
23899;BME280;20544;50.018;20.010;2023-03-23T00:36:26;98343.50;;;9.21;100.00
23899;BME280;20544;50.018;20.010;2023-03-23T00:39:44;98337.03;;;9.09;100.00
23899;BME280;20544;50.018;20.010;2023-03-23T00:43:03;98333.84;;;8.99;100.00
23899;BME280;20544;50.018;20.010;2023-03-23T00:46:21;98332.55;;;8.95;100.00
23899;BME280;20544;50.018;20.010;2023-03-23T00:49:39;98335.02;;;8.81;100.00
23899;BME280;20544;50.018;20.010;2023-03-23T00:52:56;98327.55;;;8.70;100.00
23899;BME280;20544;50.018;20.010;2023-03-23T00:56:12;98325.96;;;8.61;100.00
23899;BME280;20544;50.018;20.010;2023-03-23T00:59:30;98329.23;;;8.48;100.00
23899;BME280;20544;50.018;20.010;2023-03-23T01:02:47;98321.62;;;8.45;100.00
23899;BME280;20544;50.018;20.010;2023-03-23T01:06:11;98319.88;;;8.37;100.00
23899;BME280;20544;50.018;20.010;2023-03-23T01:09:27;98316.77;;;8.33;100.00
23899;BME280;20544;50.018;20.010;2023-03-23T01:12:46;98310.92;;;8.23;100.00
23899;BME280;20544;50.018;20.010;2023-03-23T01:16:03;98314.27;;;8.17;100.00
23899;BME280;20544;50.018;20.010;2023-03-23T01:19:20;98317.33;;;8.05;100.00
23899;BME280;20544;50.018;20.010;2023-03-23T01:22:37;98315.91;;;7.94;100.00
23899;BME280;20544;50.018;20.010;2023-03-23T01:25:54;98310.16;;;7.91;100.00
23899;BME280;20544;50.018;20.010;2023-03-23T01:29:10;98308.07;;;7.86;100.00
23899;BME280;20544;50.018;20.010;2023-03-23T01:32:27;98306.42;;;7.85;100.00
23899;BME280;20544;50.018;20.010;2023-03-23T01:35:44;98313.21;;;7.80;100.00
23899;BME280;20544;50.018;20.010;2023-03-23T01:39:00;98312.63;;;7.69;100.00
23899;BME280;20544;50.018;20.010;2023-03-23T01:42:18;98305.70;;;7.68;100.00
23899;BME280;20544;50.018;20.010;2023-03-23T01:45:38;98308.70;;;7.65;100.00
23899;BME280;20544;50.018;20.010;2023-03-23T01:48:57;98307.56;;;7.59;100.00
23899;BME280;20544;50.018;20.010;2023-03-23T01:52:20;98306.61;;;7.52;100.00
23899;BME280;20544;50.018;20.010;2023-03-23T01:55:42;98310.30;;;7.43;100.00
23899;BME280;20544;50.018;20.010;2023-03-23T01:59:01;98307.66;;;7.43;100.00
23899;BME280;20544;50.018;20.010;2023-03-23T02:02:20;98314.89;;;7.49;100.00
23899;BME280;20544;50.018;20.010;2023-03-23T02:05:40;98315.04;;;7.48;100.00
23899;BME280;20544;50.018;20.010;2023-03-23T02:08:59;98315.70;;;7.50;100.00
23899;BME280;20544;50.018;20.010;2023-03-23T02:12:18;98314.41;;;7.45;100.00
23899;BME280;20544;50.018;20.010;2023-03-23T02:15:42;98309.31;;;7.44;100.00
23899;BME280;20544;50.018;20.010;2023-03-23T02:19:34;98316.30;;;7.28;100.00
23899;BME280;20544;50.018;20.010;2023-03-23T02:23:23;98317.92;;;7.38;100.00
23899;BME280;20544;50.018;20.010;2023-03-23T02:26:51;98311.80;;;7.37;100.00
23899;BME280;20544;50.018;20.010;2023-03-23T02:30:26;98312.94;;;7.43;100.00
23899;BME280;20544;50.018;20.010;2023-03-23T02:34:02;98319.53;;;7.39;100.00
23899;BME280;20544;50.018;20.010;2023-03-23T02:37:24;98314.80;;;7.34;100.00
23899;BME280;20544;50.018;20.010;2023-03-23T02:40:46;98306.22;;;7.32;100.00
23899;BME280;20544;50.018;20.010;2023-03-23T02:44:09;98313.17;;;7.25;100.00
23899;BME280;20544;50.018;20.010;2023-03-23T02:47:25;98313.15;;;7.33;100.00
23899;BME280;20544;50.018;20.010;2023-03-23T02:50:45;98302.72;;;7.40;100.00
23899;BME280;20544;50.018;20.010;2023-03-23T02:54:06;98308.26;;;7.53;100.00
23899;BME280;20544;50.018;20.010;2023-03-23T02:57:25;98306.28;;;7.55;100.00
23899;BME280;20544;50.018;20.010;2023-03-23T03:00:45;98300.64;;;7.58;100.00
23899;BME280;20544;50.018;20.010;2023-03-23T03:04:06;98300.02;;;7.56;100.00
23899;BME280;20544;50.018;20.010;2023-03-23T03:07:52;98302.32;;;7.51;100.00
23899;BME280;20544;50.018;20.010;2023-03-23T03:11:15;98290.15;;;7.50;100.00
23899;BME280;20544;50.018;20.010;2023-03-23T03:14:37;98295.42;;;7.50;100.00
23899;BME280;20544;50.018;20.010;2023-03-23T03:18:00;98293.89;;;7.56;100.00
23899;BME280;20544;50.018;20.010;2023-03-23T03:21:21;98290.22;;;7.65;100.00
23899;BME280;20544;50.018;20.010;2023-03-23T03:24:42;98282.30;;;7.65;100.00
23899;BME280;20544;50.018;20.010;2023-03-23T03:28:00;98275.53;;;7.63;100.00
23899;BME280;20544;50.018;20.010;2023-03-23T03:31:22;98277.47;;;7.69;100.00
23899;BME280;20544;50.018;20.010;2023-03-23T03:34:41;98283.22;;;7.72;100.00
23899;BME280;20544;50.018;20.010;2023-03-23T03:38:05;98272.56;;;7.66;100.00
23899;BME280;20544;50.018;20.010;2023-03-23T03:41:23;98271.27;;;7.61;100.00
23899;BME280;20544;50.018;20.010;2023-03-23T03:44:40;98269.44;;;7.62;100.00
23899;BME280;20544;50.018;20.010;2023-03-23T03:47:57;98277.47;;;7.69;100.00
23899;BME280;20544;50.018;20.010;2023-03-23T03:51:14;98275.30;;;7.72;100.00
23899;BME280;20544;50.018;20.010;2023-03-23T03:54:30;98275.02;;;7.67;100.00
23899;BME280;20544;50.018;20.010;2023-03-23T03:57:47;98271.90;;;7.64;100.00
23899;BME280;20544;50.018;20.010;2023-03-23T04:01:12;98269.33;;;7.55;100.00
23899;BME280;20544;50.018;20.010;2023-03-23T04:04:31;98267.86;;;7.53;100.00
23899;BME280;20544;50.018;20.010;2023-03-23T04:07:47;98268.86;;;7.52;100.00
23899;BME280;20544;50.018;20.010;2023-03-23T04:11:11;98263.80;;;7.42;100.00
23899;BME280;20544;50.018;20.010;2023-03-23T04:14:31;98266.95;;;7.37;100.00
23899;BME280;20544;50.018;20.010;2023-03-23T04:17:48;98276.09;;;7.26;100.00
23899;BME280;20544;50.018;20.010;2023-03-23T04:21:06;98277.92;;;7.18;100.00
23899;BME280;20544;50.018;20.010;2023-03-23T04:24:24;98264.97;;;7.08;100.00
23899;BME280;20544;50.018;20.010;2023-03-23T04:27:46;98272.05;;;7.07;100.00
23899;BME280;20544;50.018;20.010;2023-03-23T04:31:10;98267.61;;;7.08;100.00
23899;BME280;20544;50.018;20.010;2023-03-23T04:34:29;98266.97;;;6.98;100.00
23899;BME280;20544;50.018;20.010;2023-03-23T04:37:46;98260.59;;;6.92;100.00
23899;BME280;20544;50.018;20.010;2023-03-23T04:41:03;98273.72;;;7.00;100.00
23899;BME280;20544;50.018;20.010;2023-03-23T04:44:21;98267.81;;;6.98;100.00
23899;BME280;20544;50.018;20.010;2023-03-23T04:47:43;98273.77;;;6.92;100.00
23899;BME280;20544;50.018;20.010;2023-03-23T04:51:04;98266.04;;;6.90;100.00
23899;BME280;20544;50.018;20.010;2023-03-23T04:54:22;98262.69;;;6.96;100.00
23899;BME280;20544;50.018;20.010;2023-03-23T04:57:40;98270.27;;;7.00;100.00
23899;BME280;20544;50.018;20.010;2023-03-23T05:01:14;98276.69;;;7.05;100.00
23899;BME280;20544;50.018;20.010;2023-03-23T05:04:33;98279.67;;;6.94;100.00
23899;BME280;20544;50.018;20.010;2023-03-23T05:07:55;98281.19;;;6.88;100.00
23899;BME280;20544;50.018;20.010;2023-03-23T05:11:13;98287.44;;;6.95;100.00
23899;BME280;20544;50.018;20.010;2023-03-23T05:14:29;98296.46;;;7.01;100.00
23899;BME280;20544;50.018;20.010;2023-03-23T05:17:47;98295.45;;;7.10;100.00
23899;BME280;20544;50.018;20.010;2023-03-23T05:21:05;98283.05;;;7.19;100.00
23899;BME280;20544;50.018;20.010;2023-03-23T05:24:24;98290.27;;;7.25;100.00
23899;BME280;20544;50.018;20.010;2023-03-23T05:27:43;98284.43;;;7.38;100.00
23899;BME280;20544;50.018;20.010;2023-03-23T05:31:19;98292.13;;;7.48;100.00
23899;BME280;20544;50.018;20.010;2023-03-23T05:34:35;98288.09;;;7.60;100.00
23899;BME280;20544;50.018;20.010;2023-03-23T05:41:09;98283.83;;;7.83;100.00
23899;BME280;20544;50.018;20.010;2023-03-23T05:44:26;98282.42;;;7.95;100.00
23899;BME280;20544;50.018;20.010;2023-03-23T05:47:43;98286.29;;;8.07;100.00
23899;BME280;20544;50.018;20.010;2023-03-23T05:51:01;98290.77;;;8.22;100.00
23899;BME280;20544;50.018;20.010;2023-03-23T05:54:20;98285.89;;;8.34;100.00
23899;BME280;20544;50.018;20.010;2023-03-23T05:57:37;98284.58;;;8.53;100.00
23899;BME280;20544;50.018;20.010;2023-03-23T06:00:55;98288.16;;;8.75;100.00
23899;BME280;20544;50.018;20.010;2023-03-23T06:04:12;98298.63;;;8.98;100.00
23899;BME280;20544;50.018;20.010;2023-03-23T06:07:31;98301.23;;;9.28;100.00
23899;BME280;20544;50.018;20.010;2023-03-23T06:10:48;98299.47;;;9.50;100.00
23899;BME280;20544;50.018;20.010;2023-03-23T06:14:04;98303.71;;;9.66;100.00
23899;BME280;20544;50.018;20.010;2023-03-23T06:17:21;98297.94;;;9.99;100.00
23899;BME280;20544;50.018;20.010;2023-03-23T06:20:38;98296.47;;;10.18;100.00
23899;BME280;20544;50.018;20.010;2023-03-23T06:23:57;98290.19;;;10.48;100.00
23899;BME280;20544;50.018;20.010;2023-03-23T06:27:14;98292.35;;;11.01;100.00
23899;BME280;20544;50.018;20.010;2023-03-23T06:30:30;98285.98;;;11.44;100.00
23899;BME280;20544;50.018;20.010;2023-03-23T06:33:48;98297.75;;;11.90;100.00
23899;BME280;20544;50.018;20.010;2023-03-23T06:37:05;98294.75;;;12.33;100.00
23899;BME280;20544;50.018;20.010;2023-03-23T06:40:33;98299.00;;;12.81;100.00
23899;BME280;20544;50.018;20.010;2023-03-23T06:43:50;98305.84;;;13.16;100.00
23899;BME280;20544;50.018;20.010;2023-03-23T06:47:08;98306.42;;;13.38;100.00
23899;BME280;20544;50.018;20.010;2023-03-23T06:50:28;98303.45;;;14.23;100.00
23899;BME280;20544;50.018;20.010;2023-03-23T06:53:47;98307.48;;;15.02;100.00
23899;BME280;20544;50.018;20.010;2023-03-23T06:57:04;98317.54;;;15.56;100.00
23899;BME280;20544;50.018;20.010;2023-03-23T07:00:22;98311.71;;;16.08;100.00
23899;BME280;20544;50.018;20.010;2023-03-23T07:03:39;98321.14;;;16.22;100.00
23899;BME280;20544;50.018;20.010;2023-03-23T07:06:57;98326.08;;;16.85;100.00
23899;BME280;20544;50.018;20.010;2023-03-23T07:10:16;98334.31;;;17.30;100.00
23899;BME280;20544;50.018;20.010;2023-03-23T07:13:33;98339.23;;;17.22;100.00
23899;BME280;20544;50.018;20.010;2023-03-23T07:16:50;98336.88;;;17.37;100.00
23899;BME280;20544;50.018;20.010;2023-03-23T07:20:10;98333.45;;;17.54;100.00
23899;BME280;20544;50.018;20.010;2023-03-23T07:23:28;98331.73;;;17.36;100.00
23899;BME280;20544;50.018;20.010;2023-03-23T07:26:44;98331.38;;;17.44;100.00
23899;BME280;20544;50.018;20.010;2023-03-23T07:30:00;98341.15;;;17.50;100.00
23899;BME280;20544;50.018;20.010;2023-03-23T07:33:18;98339.09;;;17.69;100.00
23899;BME280;20544;50.018;20.010;2023-03-23T07:36:36;98341.41;;;17.77;100.00
23899;BME280;20544;50.018;20.010;2023-03-23T07:39:53;98335.95;;;17.72;100.00
23899;BME280;20544;50.018;20.010;2023-03-23T07:43:12;98327.04;;;17.84;100.00
23899;BME280;20544;50.018;20.010;2023-03-23T07:46:43;98336.55;;;18.03;100.00
23899;BME280;20544;50.018;20.010;2023-03-23T07:50:02;98340.11;;;17.80;100.00
23899;BME280;20544;50.018;20.010;2023-03-23T07:53:21;98336.55;;;17.22;100.00
23899;BME280;20544;50.018;20.010;2023-03-23T07:56:40;98334.01;;;17.15;100.00
23899;BME280;20544;50.018;20.010;2023-03-23T08:00:00;98336.84;;;17.49;100.00
23899;BME280;20544;50.018;20.010;2023-03-23T08:03:24;98334.04;;;17.56;100.00
23899;BME280;20544;50.018;20.010;2023-03-23T08:07:01;98333.80;;;17.57;100.00
23899;BME280;20544;50.018;20.010;2023-03-23T08:10:26;98332.44;;;17.72;100.00
23899;BME280;20544;50.018;20.010;2023-03-23T08:13:48;98334.28;;;17.83;100.00
23899;BME280;20544;50.018;20.010;2023-03-23T08:17:16;98336.73;;;17.44;100.00
23899;BME280;20544;50.018;20.010;2023-03-23T08:20:51;98341.66;;;17.35;100.00
23899;BME280;20544;50.018;20.010;2023-03-23T08:24:32;98334.14;;;16.96;100.00
23899;BME280;20544;50.018;20.010;2023-03-23T08:28:00;98344.03;;;17.20;100.00
23899;BME280;20544;50.018;20.010;2023-03-23T08:31:40;98344.38;;;17.00;100.00
23899;BME280;20544;50.018;20.010;2023-03-23T08:54:17;98334.94;;;16.61;100.00
23899;BME280;20544;50.018;20.010;2023-03-23T08:57:59;98343.30;;;16.53;100.00
23899;BME280;20544;50.018;20.010;2023-03-23T09:01:54;98340.06;;;16.51;100.00
23899;BME280;20544;50.018;20.010;2023-03-23T09:05:36;98341.10;;;16.50;100.00
23899;BME280;20544;50.018;20.010;2023-03-23T09:09:27;98327.36;;;16.58;100.00
23899;BME280;20544;50.018;20.010;2023-03-23T09:12:45;98336.34;;;16.64;100.00
23899;BME280;20544;50.018;20.010;2023-03-23T09:16:04;98336.09;;;16.65;100.00
23899;BME280;20544;50.018;20.010;2023-03-23T09:19:23;98340.08;;;16.75;100.00
23899;BME280;20544;50.018;20.010;2023-03-23T09:22:41;98337.38;;;16.87;100.00
23899;BME280;20544;50.018;20.010;2023-03-23T09:26:01;98342.50;;;17.12;100.00
23899;BME280;20544;50.018;20.010;2023-03-23T09:29:18;98343.19;;;17.31;100.00
23899;BME280;20544;50.018;20.010;2023-03-23T09:32:37;98342.80;;;17.39;100.00
23899;BME280;20544;50.018;20.010;2023-03-23T09:35:54;98343.25;;;17.48;100.00
23899;BME280;20544;50.018;20.010;2023-03-23T09:39:12;98341.30;;;17.43;100.00
23899;BME280;20544;50.018;20.010;2023-03-23T09:42:49;98340.20;;;17.56;100.00
23899;BME280;20544;50.018;20.010;2023-03-23T09:46:22;98338.54;;;17.67;100.00
23899;BME280;20544;50.018;20.010;2023-03-23T09:49:52;98337.80;;;17.72;100.00
23899;BME280;20544;50.018;20.010;2023-03-23T09:53:14;98328.67;;;17.85;100.00
23899;BME280;20544;50.018;20.010;2023-03-23T09:56:36;98316.94;;;18.03;100.00
23899;BME280;20544;50.018;20.010;2023-03-23T09:59:56;98315.59;;;18.17;100.00
23899;BME280;20544;50.018;20.010;2023-03-23T10:03:21;98319.56;;;18.32;100.00
23899;BME280;20544;50.018;20.010;2023-03-23T10:06:42;98313.28;;;18.77;100.00
23899;BME280;20544;50.018;20.010;2023-03-23T10:10:02;98320.55;;;19.16;100.00
23899;BME280;20544;50.018;20.010;2023-03-23T10:13:29;98332.38;;;19.37;100.00
23899;BME280;20544;50.018;20.010;2023-03-23T10:16:55;98319.41;;;19.34;100.00
23899;BME280;20544;50.018;20.010;2023-03-23T10:20:27;98307.59;;;19.57;100.00
23899;BME280;20544;50.018;20.010;2023-03-23T10:24:00;98308.88;;;19.77;100.00
23899;BME280;20544;50.018;20.010;2023-03-23T10:27:25;98326.73;;;20.10;100.00
23899;BME280;20544;50.018;20.010;2023-03-23T10:30:48;98307.70;;;20.22;100.00
23899;BME280;20544;50.018;20.010;2023-03-23T10:34:10;98309.34;;;20.61;100.00
23899;BME280;20544;50.018;20.010;2023-03-23T10:37:32;98305.00;;;20.92;100.00
23899;BME280;20544;50.018;20.010;2023-03-23T10:40:52;98301.58;;;20.69;99.58
23899;BME280;20544;50.018;20.010;2023-03-23T10:44:16;98288.83;;;20.92;99.66
23899;BME280;20544;50.018;20.010;2023-03-23T10:47:35;98297.30;;;21.22;100.00
23899;BME280;20544;50.018;20.010;2023-03-23T10:50:57;98292.52;;;21.39;100.00
23899;BME280;20544;50.018;20.010;2023-03-23T10:54:26;98289.02;;;21.39;96.88
23899;BME280;20544;50.018;20.010;2023-03-23T10:57:58;98284.19;;;21.46;99.60
23899;BME280;20544;50.018;20.010;2023-03-23T11:01:17;98273.61;;;21.29;98.69
23899;BME280;20544;50.018;20.010;2023-03-23T11:04:34;98278.72;;;21.25;99.37
23899;BME280;20544;50.018;20.010;2023-03-23T11:07:54;98279.29;;;21.32;99.78
23899;BME280;20544;50.018;20.010;2023-03-23T11:11:15;98281.66;;;21.13;96.39
23899;BME280;20544;50.018;20.010;2023-03-23T11:14:33;98274.80;;;20.90;95.00
23899;BME280;20544;50.018;20.010;2023-03-23T11:18:01;98259.42;;;20.91;97.32
23899;BME280;20544;50.018;20.010;2023-03-23T11:21:19;98265.84;;;20.79;95.95
23899;BME280;20544;50.018;20.010;2023-03-23T11:24:41;98258.48;;;20.69;95.23
23899;BME280;20544;50.018;20.010;2023-03-23T11:28:02;98266.73;;;20.95;96.78
23899;BME280;20544;50.018;20.010;2023-03-23T11:31:22;98264.70;;;20.70;94.12
23899;BME280;20544;50.018;20.010;2023-03-23T11:34:45;98259.78;;;20.62;94.15
23899;BME280;20544;50.018;20.010;2023-03-23T11:38:04;98258.38;;;20.49;94.51
23899;BME280;20544;50.018;20.010;2023-03-23T11:41:28;98250.29;;;20.49;96.78
23899;BME280;20544;50.018;20.010;2023-03-23T11:44:46;98255.70;;;20.54;96.13
23899;BME280;20544;50.018;20.010;2023-03-23T11:48:10;98242.64;;;20.73;98.79
23899;BME280;20544;50.018;20.010;2023-03-23T11:51:36;98239.63;;;20.69;96.81
23899;BME280;20544;50.018;20.010;2023-03-23T11:54:57;98239.30;;;20.61;98.23
23899;BME280;20544;50.018;20.010;2023-03-23T11:58:17;98245.52;;;20.61;97.06
23899;BME280;20544;50.018;20.010;2023-03-23T12:01:55;98241.15;;;20.50;99.74
23899;BME280;20544;50.018;20.010;2023-03-23T12:05:34;98241.06;;;20.40;95.85
23899;BME280;20544;50.018;20.010;2023-03-23T12:09:04;98230.05;;;20.41;97.70
23899;BME280;20544;50.018;20.010;2023-03-23T12:12:29;98236.08;;;20.21;97.75
23899;BME280;20544;50.018;20.010;2023-03-23T12:15:52;98233.89;;;20.13;99.37
23899;BME280;20544;50.018;20.010;2023-03-23T12:19:16;98236.70;;;19.96;98.03
23899;BME280;20544;50.018;20.010;2023-03-23T12:22:43;98238.59;;;19.95;100.00
23899;BME280;20544;50.018;20.010;2023-03-23T12:26:15;98237.35;;;19.81;99.46
23899;BME280;20544;50.018;20.010;2023-03-23T12:29:52;98237.62;;;19.79;99.32
23899;BME280;20544;50.018;20.010;2023-03-23T12:33:29;98224.36;;;19.72;99.70
23899;BME280;20544;50.018;20.010;2023-03-23T12:37:01;98219.45;;;19.64;100.00
23899;BME280;20544;50.018;20.010;2023-03-23T12:40:34;98228.45;;;19.48;99.37
23899;BME280;20544;50.018;20.010;2023-03-23T12:44:03;98232.90;;;19.37;99.80
23899;BME280;20544;50.018;20.010;2023-03-23T12:47:31;98228.27;;;19.32;100.00
23899;BME280;20544;50.018;20.010;2023-03-23T12:51:19;98227.42;;;19.27;100.00
23899;BME280;20544;50.018;20.010;2023-03-23T12:54:31;98220.05;;;19.17;100.00
23899;BME280;20544;50.018;20.010;2023-03-23T12:57:53;98232.66;;;19.16;100.00
23899;BME280;20544;50.018;20.010;2023-03-23T13:01:14;98227.23;;;19.11;100.00
23899;BME280;20544;50.018;20.010;2023-03-23T13:04:37;98225.38;;;19.12;100.00
23899;BME280;20544;50.018;20.010;2023-03-23T13:07:59;98225.48;;;19.00;100.00
23899;BME280;20544;50.018;20.010;2023-03-23T13:11:20;98233.80;;;18.98;100.00
23899;BME280;20544;50.018;20.010;2023-03-23T13:14:43;98227.00;;;18.90;100.00
23899;BME280;20544;50.018;20.010;2023-03-23T13:18:08;98227.80;;;18.91;100.00
23899;BME280;20544;50.018;20.010;2023-03-23T13:21:27;98225.51;;;18.83;100.00
23899;BME280;20544;50.018;20.010;2023-03-23T13:24:51;98223.66;;;18.83;100.00
23899;BME280;20544;50.018;20.010;2023-03-23T13:28:19;98220.91;;;18.78;100.00
23899;BME280;20544;50.018;20.010;2023-03-23T13:31:41;98209.53;;;18.71;100.00
23899;BME280;20544;50.018;20.010;2023-03-23T13:35:00;98206.02;;;18.70;100.00
23899;BME280;20544;50.018;20.010;2023-03-23T13:38:23;98213.14;;;18.59;100.00
23899;BME280;20544;50.018;20.010;2023-03-23T13:41:59;98212.25;;;18.54;100.00
23899;BME280;20544;50.018;20.010;2023-03-23T13:45:36;98213.08;;;18.54;100.00
23899;BME280;20544;50.018;20.010;2023-03-23T13:52:51;98214.39;;;18.52;100.00
23899;BME280;20544;50.018;20.010;2023-03-23T13:56:18;98224.55;;;18.50;100.00
23899;BME280;20544;50.018;20.010;2023-03-23T13:59:48;98217.80;;;18.47;100.00
23899;BME280;20544;50.018;20.010;2023-03-23T14:03:17;98225.03;;;18.47;100.00
23899;BME280;20544;50.018;20.010;2023-03-23T14:06:39;98221.80;;;18.45;100.00
23899;BME280;20544;50.018;20.010;2023-03-23T14:10:07;98221.06;;;18.49;100.00
23899;BME280;20544;50.018;20.010;2023-03-23T14:13:37;98218.86;;;18.46;100.00
23899;BME280;20544;50.018;20.010;2023-03-23T14:17:10;98207.13;;;18.52;100.00
23899;BME280;20544;50.018;20.010;2023-03-23T14:20:36;98206.33;;;18.52;100.00
23899;BME280;20544;50.018;20.010;2023-03-23T14:23:53;98204.95;;;18.49;100.00
23899;BME280;20544;50.018;20.010;2023-03-23T14:27:13;98202.43;;;18.42;100.00
23899;BME280;20544;50.018;20.010;2023-03-23T14:30:35;98201.38;;;18.43;100.00
23899;BME280;20544;50.018;20.010;2023-03-23T14:33:55;98198.11;;;18.41;100.00
23899;BME280;20544;50.018;20.010;2023-03-23T14:37:16;98197.31;;;18.41;100.00
23899;BME280;20544;50.018;20.010;2023-03-23T14:40:33;98204.53;;;18.40;100.00
23899;BME280;20544;50.018;20.010;2023-03-23T14:43:52;98195.94;;;18.38;100.00
23899;BME280;20544;50.018;20.010;2023-03-23T14:47:16;98192.94;;;18.35;100.00
23899;BME280;20544;50.018;20.010;2023-03-23T14:50:39;98198.23;;;18.30;100.00
23899;BME280;20544;50.018;20.010;2023-03-23T14:53:57;98198.30;;;18.35;100.00
23899;BME280;20544;50.018;20.010;2023-03-23T14:57:15;98193.73;;;18.35;100.00
23899;BME280;20544;50.018;20.010;2023-03-23T15:00:36;98197.80;;;18.38;100.00
23899;BME280;20544;50.018;20.010;2023-03-23T15:03:58;98193.58;;;18.42;100.00
23899;BME280;20544;50.018;20.010;2023-03-23T15:07:17;98195.69;;;18.40;100.00
23899;BME280;20544;50.018;20.010;2023-03-23T15:10:34;98187.56;;;18.35;100.00
23899;BME280;20544;50.018;20.010;2023-03-23T15:13:53;98179.70;;;18.28;100.00
23899;BME280;20544;50.018;20.010;2023-03-23T15:17:19;98185.80;;;18.23;100.00
23899;BME280;20544;50.018;20.010;2023-03-23T15:20:49;98190.84;;;18.20;100.00
23899;BME280;20544;50.018;20.010;2023-03-23T15:24:20;98190.02;;;18.19;100.00
23899;BME280;20544;50.018;20.010;2023-03-23T15:27:44;98189.21;;;18.19;100.00
23899;BME280;20544;50.018;20.010;2023-03-23T15:31:06;98191.09;;;18.18;100.00
23899;BME280;20544;50.018;20.010;2023-03-23T15:34:28;98196.46;;;18.18;100.00
23899;BME280;20544;50.018;20.010;2023-03-23T15:37:49;98196.14;;;18.15;100.00
23899;BME280;20544;50.018;20.010;2023-03-23T15:41:19;98192.08;;;18.12;100.00
23899;BME280;20544;50.018;20.010;2023-03-23T15:44:37;98188.74;;;18.05;100.00
23899;BME280;20544;50.018;20.010;2023-03-23T15:47:53;98193.20;;;17.99;100.00
23899;BME280;20544;50.018;20.010;2023-03-23T15:51:11;98184.10;;;18.00;100.00
23899;BME280;20544;50.018;20.010;2023-03-23T15:54:30;98180.30;;;17.96;100.00
23899;BME280;20544;50.018;20.010;2023-03-23T15:57:47;98181.09;;;17.97;100.00
23899;BME280;20544;50.018;20.010;2023-03-23T16:01:07;98187.29;;;17.97;100.00
23899;BME280;20544;50.018;20.010;2023-03-23T16:04:26;98180.73;;;17.93;100.00
23899;BME280;20544;50.018;20.010;2023-03-23T16:07:43;98180.73;;;17.93;100.00
23899;BME280;20544;50.018;20.010;2023-03-23T16:11:00;98182.62;;;17.92;100.00
23899;BME280;20544;50.018;20.010;2023-03-23T16:14:16;98188.23;;;17.91;100.00
23899;BME280;20544;50.018;20.010;2023-03-23T16:17:32;98189.76;;;17.87;100.00
23899;BME280;20544;50.018;20.010;2023-03-23T16:20:49;98186.27;;;17.86;100.00
23899;BME280;20544;50.018;20.010;2023-03-23T16:24:07;98190.84;;;17.86;100.00
23899;BME280;20544;50.018;20.010;2023-03-23T16:27:26;98187.58;;;17.84;100.00
23899;BME280;20544;50.018;20.010;2023-03-23T16:30:43;98182.47;;;17.82;100.00
23899;BME280;20544;50.018;20.010;2023-03-23T16:34:00;98179.78;;;17.82;100.00
23899;BME280;20544;50.018;20.010;2023-03-23T16:37:16;98187.58;;;17.84;100.00
23899;BME280;20544;50.018;20.010;2023-03-23T16:40:33;98184.64;;;17.85;100.00
23899;BME280;20544;50.018;20.010;2023-03-23T16:43:50;98180.11;;;17.86;100.00
23899;BME280;20544;50.018;20.010;2023-03-23T16:47:07;98184.64;;;17.85;100.00
23899;BME280;20544;50.018;20.010;2023-03-23T16:50:23;98183.02;;;17.84;100.00
23899;BME280;20544;50.018;20.010;2023-03-23T16:53:40;98182.69;;;17.81;100.00
23899;BME280;20544;50.018;20.010;2023-03-23T16:56:57;98194.49;;;17.79;100.00
23899;BME280;20544;50.018;20.010;2023-03-23T17:00:19;98194.38;;;17.74;100.00
23899;BME280;20544;50.018;20.010;2023-03-23T17:03:38;98185.53;;;17.74;100.00
23899;BME280;20544;50.018;20.010;2023-03-23T17:06:59;98190.56;;;17.70;100.00
23899;BME280;20544;50.018;20.010;2023-03-23T17:10:17;98189.19;;;17.68;100.00
23899;BME280;20544;50.018;20.010;2023-03-23T17:13:35;98191.54;;;17.64;100.00
23899;BME280;20544;50.018;20.010;2023-03-23T17:16:56;98190.73;;;17.63;100.00
23899;BME280;20544;50.018;20.010;2023-03-23T17:20:14;98200.08;;;17.61;100.00
23899;BME280;20544;50.018;20.010;2023-03-23T17:23:42;98198.70;;;17.58;100.00
23899;BME280;20544;50.018;20.010;2023-03-23T17:27:01;98198.58;;;17.53;100.00
23899;BME280;20544;50.018;20.010;2023-03-23T17:30:19;98204.19;;;17.52;100.00
23899;BME280;20544;50.018;20.010;2023-03-23T17:33:37;98204.44;;;17.50;100.00
23899;BME280;20544;50.018;20.010;2023-03-23T17:36:54;98200.13;;;17.49;100.00
23899;BME280;20544;50.018;20.010;2023-03-23T17:40:13;98201.42;;;17.46;100.00
23899;BME280;20544;50.018;20.010;2023-03-23T17:43:29;98196.78;;;17.42;100.00
23899;BME280;20544;50.018;20.010;2023-03-23T17:46:48;98202.38;;;17.40;100.00
23899;BME280;20544;50.018;20.010;2023-03-23T17:50:06;98201.72;;;17.33;100.00
23899;BME280;20544;50.018;20.010;2023-03-23T17:53:23;98196.59;;;17.32;100.00